sensor_id;sensor_type;location;lat;lon;timestamp;pressure;altitude;pressure_sealevel;temperature;humidity
12213;BME280;6169;44.158;22.788;2023-03-26T00:01:31;100391.19;;;14.33;51.63
12213;BME280;6169;44.158;22.788;2023-03-26T00:06:37;100558.63;;;15.44;51.14
12213;BME280;6169;44.158;22.788;2023-03-26T00:11:42;100571.22;;;15.50;51.65
12213;BME280;6169;44.158;22.788;2023-03-26T00:16:45;100566.28;;;15.47;49.92
12213;BME280;6169;44.158;22.788;2023-03-26T00:21:48;100557.00;;;15.89;48.74
12213;BME280;6169;44.158;22.788;2023-03-26T00:26:53;100558.91;;;15.63;48.70
12213;BME280;6169;44.158;22.788;2023-03-26T00:31:55;100566.50;;;15.05;49.52
12213;BME280;6169;44.158;22.788;2023-03-26T00:36:57;100570.84;;;14.96;48.01
12213;BME280;6169;44.158;22.788;2023-03-26T00:42:04;100573.31;;;15.07;47.47
12213;BME280;6169;44.158;22.788;2023-03-26T00:47:07;100583.94;;;14.78;48.40
12213;BME280;6169;44.158;22.788;2023-03-26T00:52:09;100585.38;;;15.01;47.74
12213;BME280;6169;44.158;22.788;2023-03-26T00:57:13;100589.91;;;14.70;47.37
12213;BME280;6169;44.158;22.788;2023-03-26T01:02:17;100601.78;;;14.91;46.89
12213;BME280;6169;44.158;22.788;2023-03-26T01:07:23;100608.38;;;15.00;46.22
12213;BME280;6169;44.158;22.788;2023-03-26T01:12:30;100592.44;;;14.29;46.84
12213;BME280;6169;44.158;22.788;2023-03-26T01:17:32;100591.66;;;14.39;46.97
12213;BME280;6169;44.158;22.788;2023-03-26T01:22:39;100589.16;;;14.32;46.29
12213;BME280;6169;44.158;22.788;2023-03-26T01:27:47;100588.06;;;14.86;45.16
12213;BME280;6169;44.158;22.788;2023-03-26T01:32:57;100582.41;;;15.18;44.68
12213;BME280;6169;44.158;22.788;2023-03-26T01:38:05;100584.19;;;14.72;45.49
12213;BME280;6169;44.158;22.788;2023-03-26T01:43:20;100580.47;;;14.45;46.12
12213;BME280;6169;44.158;22.788;2023-03-26T01:48:30;100590.16;;;14.16;46.81
12213;BME280;6169;44.158;22.788;2023-03-26T01:53:37;100590.69;;;14.13;46.84
12213;BME280;6169;44.158;22.788;2023-03-26T01:58:54;100607.63;;;13.77;47.81
12213;BME280;6169;44.158;22.788;2023-03-26T02:04:02;100616.72;;;13.88;48.10
12213;BME280;6169;44.158;22.788;2023-03-26T02:09:10;100631.88;;;14.43;46.36
12213;BME280;6169;44.158;22.788;2023-03-26T02:14:16;100618.13;;;14.76;45.24
12213;BME280;6169;44.158;22.788;2023-03-26T02:19:18;100625.03;;;14.88;44.52
12213;BME280;6169;44.158;22.788;2023-03-26T02:24:24;100619.44;;;14.25;46.24
12213;BME280;6169;44.158;22.788;2023-03-26T02:29:28;100627.78;;;14.03;46.42
12213;BME280;6169;44.158;22.788;2023-03-26T02:34:30;100629.31;;;13.62;46.99
12213;BME280;6169;44.158;22.788;2023-03-26T02:39:32;100632.88;;;13.63;47.35
12213;BME280;6169;44.158;22.788;2023-03-26T02:44:35;100621.19;;;13.72;46.75
12213;BME280;6169;44.158;22.788;2023-03-26T02:49:39;100637.00;;;13.97;45.34
12213;BME280;6169;44.158;22.788;2023-03-26T02:54:42;100631.53;;;13.97;45.70
12213;BME280;6169;44.158;22.788;2023-03-26T02:59:45;100631.88;;;14.43;44.22
12213;BME280;6169;44.158;22.788;2023-03-26T03:04:50;100638.16;;;14.01;46.07
12213;BME280;6169;44.158;22.788;2023-03-26T03:09:52;100641.84;;;13.31;48.38
12213;BME280;6169;44.158;22.788;2023-03-26T03:14:56;100631.22;;;13.62;47.43
12213;BME280;6169;44.158;22.788;2023-03-26T03:19:58;100622.31;;;12.95;48.42
12213;BME280;6169;44.158;22.788;2023-03-26T03:25:00;100654.75;;;13.41;47.99
12213;BME280;6169;44.158;22.788;2023-03-26T03:30:05;100647.59;;;12.85;48.42
12213;BME280;6169;44.158;22.788;2023-03-26T03:35:08;100668.13;;;12.93;48.20
12213;BME280;6169;44.158;22.788;2023-03-26T03:40:11;100667.66;;;13.45;47.17
12213;BME280;6169;44.158;22.788;2023-03-26T03:45:15;100673.00;;;13.89;45.52
12213;BME280;6169;44.158;22.788;2023-03-26T03:50:17;100673.59;;;13.64;46.13
12213;BME280;6169;44.158;22.788;2023-03-26T03:55:20;100667.44;;;13.25;47.01
12213;BME280;6169;44.158;22.788;2023-03-26T04:00:24;100672.25;;;13.40;46.12
12213;BME280;6169;44.158;22.788;2023-03-26T04:05:27;100672.66;;;13.53;45.63
12213;BME280;6169;44.158;22.788;2023-03-26T04:10:29;100681.22;;;13.89;44.81
12213;BME280;6169;44.158;22.788;2023-03-26T04:15:32;100679.75;;;14.09;44.04
12213;BME280;6169;44.158;22.788;2023-03-26T04:20:36;100673.34;;;14.30;43.35
12213;BME280;6169;44.158;22.788;2023-03-26T04:25:42;100675.75;;;14.21;42.98
12213;BME280;6169;44.158;22.788;2023-03-26T04:30:49;100669.94;;;14.13;42.84
12213;BME280;6169;44.158;22.788;2023-03-26T04:35:53;100673.53;;;13.86;43.31
12213;BME280;6169;44.158;22.788;2023-03-26T04:41:01;100667.75;;;13.55;44.32
12213;BME280;6169;44.158;22.788;2023-03-26T04:46:05;100664.50;;;13.09;44.65
12213;BME280;6169;44.158;22.788;2023-03-26T04:51:08;100679.66;;;13.71;43.25
12213;BME280;6169;44.158;22.788;2023-03-26T04:56:25;100669.03;;;14.02;42.75
12213;BME280;6169;44.158;22.788;2023-03-26T05:01:32;100669.28;;;13.95;43.14
12213;BME280;6169;44.158;22.788;2023-03-26T05:06:37;100672.41;;;14.14;42.78
12213;BME280;6169;44.158;22.788;2023-03-26T05:11:39;100679.84;;;14.19;43.24
12213;BME280;6169;44.158;22.788;2023-03-26T05:16:43;100682.47;;;14.03;43.55
12213;BME280;6169;44.158;22.788;2023-03-26T05:21:47;100677.53;;;14.06;43.63
12213;BME280;6169;44.158;22.788;2023-03-26T05:26:49;100686.84;;;13.50;45.71
12213;BME280;6169;44.158;22.788;2023-03-26T05:31:53;100685.34;;;14.24;44.73
12213;BME280;6169;44.158;22.788;2023-03-26T05:36:55;100694.22;;;14.04;45.06
12213;BME280;6169;44.158;22.788;2023-03-26T05:41:57;100695.84;;;14.05;46.16
12213;BME280;6169;44.158;22.788;2023-03-26T05:47:01;100690.66;;;14.03;47.15
12213;BME280;6169;44.158;22.788;2023-03-26T05:52:04;100704.22;;;14.63;45.03
12213;BME280;6169;44.158;22.788;2023-03-26T05:57:06;100697.19;;;14.02;46.90
12213;BME280;6169;44.158;22.788;2023-03-26T06:02:10;100701.06;;;14.07;47.49
12213;BME280;6169;44.158;22.788;2023-03-26T06:07:12;100697.91;;;15.05;45.42
12213;BME280;6169;44.158;22.788;2023-03-26T06:12:16;100694.13;;;15.16;46.04
12213;BME280;6169;44.158;22.788;2023-03-26T06:17:20;100696.66;;;15.33;43.30
12213;BME280;6169;44.158;22.788;2023-03-26T06:22:22;100697.53;;;14.86;43.22
12213;BME280;6169;44.158;22.788;2023-03-26T06:27:24;100708.09;;;15.20;43.42
12213;BME280;6169;44.158;22.788;2023-03-26T06:32:28;100709.50;;;15.27;42.14
12213;BME280;6169;44.158;22.788;2023-03-26T06:37:30;100706.50;;;15.29;41.41
12213;BME280;6169;44.158;22.788;2023-03-26T06:42:32;100714.34;;;15.88;41.01
12213;BME280;6169;44.158;22.788;2023-03-26T06:47:36;100728.91;;;16.30;40.24
12213;BME280;6169;44.158;22.788;2023-03-26T06:52:38;100731.06;;;15.92;39.35
12213;BME280;6169;44.158;22.788;2023-03-26T06:57:40;100745.91;;;16.37;37.71
12213;BME280;6169;44.158;22.788;2023-03-26T07:02:46;100749.19;;;16.18;37.71
12213;BME280;6169;44.158;22.788;2023-03-26T07:07:48;100747.16;;;15.63;37.28
12213;BME280;6169;44.158;22.788;2023-03-26T07:12:52;100744.81;;;16.33;38.08
12213;BME280;6169;44.158;22.788;2023-03-26T07:17:55;100751.91;;;16.28;37.78
12213;BME280;6169;44.158;22.788;2023-03-26T07:22:58;100754.13;;;16.26;38.15
12213;BME280;6169;44.158;22.788;2023-03-26T07:28:06;100751.38;;;16.01;38.42
12213;BME280;6169;44.158;22.788;2023-03-26T07:33:19;100765.38;;;16.25;37.12
12213;BME280;6169;44.158;22.788;2023-03-26T07:38:35;100767.00;;;16.11;36.92
12213;BME280;6169;44.158;22.788;2023-03-26T07:44:03;100775.00;;;16.53;37.18
12213;BME280;6169;44.158;22.788;2023-03-26T07:49:11;100774.44;;;16.61;35.22
12213;BME280;6169;44.158;22.788;2023-03-26T07:54:14;100777.44;;;16.24;35.94
12213;BME280;6169;44.158;22.788;2023-03-26T07:59:21;100785.66;;;17.01;34.24
12213;BME280;6169;44.158;22.788;2023-03-26T08:04:40;100774.19;;;16.47;35.40
12213;BME280;6169;44.158;22.788;2023-03-26T08:09:59;100776.75;;;17.99;34.26
12213;BME280;6169;44.158;22.788;2023-03-26T08:15:11;100778.06;;;18.12;34.13
12213;BME280;6169;44.158;22.788;2023-03-26T08:20:24;100780.66;;;18.33;33.18
12213;BME280;6169;44.158;22.788;2023-03-26T08:25:33;100780.59;;;18.03;32.53
12213;BME280;6169;44.158;22.788;2023-03-26T08:30:37;100769.72;;;17.78;32.59
12213;BME280;6169;44.158;22.788;2023-03-26T08:35:41;100758.66;;;17.83;33.21
12213;BME280;6169;44.158;22.788;2023-03-26T08:46:41;100755.22;;;18.80;32.12
12213;BME280;6169;44.158;22.788;2023-03-26T08:57:40;100744.47;;;18.15;30.43
12213;BME280;6169;44.158;22.788;2023-03-26T09:03:11;100736.66;;;18.27;31.05
12213;BME280;6169;44.158;22.788;2023-03-26T09:08:52;100733.63;;;18.58;29.44
12213;BME280;6169;44.158;22.788;2023-03-26T09:14:27;100718.63;;;18.75;30.82
12213;BME280;6169;44.158;22.788;2023-03-26T09:25:41;100714.34;;;18.58;28.45
12213;BME280;6169;44.158;22.788;2023-03-26T09:31:06;100720.72;;;19.31;26.56
12213;BME280;6169;44.158;22.788;2023-03-26T09:36:24;100699.78;;;19.73;26.51
12213;BME280;6169;44.158;22.788;2023-03-26T09:41:35;100701.78;;;19.48;25.29
12213;BME280;6169;44.158;22.788;2023-03-26T09:46:48;100690.00;;;20.32;27.23
12213;BME280;6169;44.158;22.788;2023-03-26T09:52:19;100692.09;;;19.70;26.24
12213;BME280;6169;44.158;22.788;2023-03-26T09:57:38;100689.06;;;19.28;25.48
12213;BME280;6169;44.158;22.788;2023-03-26T10:02:57;100689.34;;;19.51;24.41
12213;BME280;6169;44.158;22.788;2023-03-26T10:08:12;100665.50;;;19.17;25.11
12213;BME280;6169;44.158;22.788;2023-03-26T10:13:28;100659.78;;;19.32;24.90
12213;BME280;6169;44.158;22.788;2023-03-26T10:18:39;100657.50;;;19.39;25.01
12213;BME280;6169;44.158;22.788;2023-03-26T10:24:08;100647.31;;;19.78;24.43
12213;BME280;6169;44.158;22.788;2023-03-26T10:29:26;100632.97;;;19.38;25.08
12213;BME280;6169;44.158;22.788;2023-03-26T10:34:47;100628.72;;;19.27;24.89
12213;BME280;6169;44.158;22.788;2023-03-26T10:40:08;100628.69;;;19.51;24.98
12213;BME280;6169;44.158;22.788;2023-03-26T10:45:46;100631.25;;;19.80;24.40
12213;BME280;6169;44.158;22.788;2023-03-26T10:51:19;100614.19;;;20.11;23.44
12213;BME280;6169;44.158;22.788;2023-03-26T10:56:30;100595.31;;;20.73;23.46
12213;BME280;6169;44.158;22.788;2023-03-26T11:01:41;100587.06;;;20.87;24.30
12213;BME280;6169;44.158;22.788;2023-03-26T11:06:52;100599.25;;;20.86;23.22
12213;BME280;6169;44.158;22.788;2023-03-26T11:12:03;100550.66;;;20.57;24.04
12213;BME280;6169;44.158;22.788;2023-03-26T11:17:16;100560.00;;;21.34;23.45
12213;BME280;6169;44.158;22.788;2023-03-26T11:22:30;100553.69;;;20.69;22.22
12213;BME280;6169;44.158;22.788;2023-03-26T11:27:52;100548.09;;;21.70;20.35
12213;BME280;6169;44.158;22.788;2023-03-26T11:33:02;100519.53;;;21.38;22.77
12213;BME280;6169;44.158;22.788;2023-03-26T11:38:12;100520.97;;;20.63;21.46
12213;BME280;6169;44.158;22.788;2023-03-26T11:43:20;100533.56;;;20.55;21.36
12213;BME280;6169;44.158;22.788;2023-03-26T11:48:29;100500.69;;;21.17;20.33
12213;BME280;6169;44.158;22.788;2023-03-26T11:53:34;100512.25;;;21.20;19.78
12213;BME280;6169;44.158;22.788;2023-03-26T11:58:42;100507.28;;;21.75;20.40
12213;BME280;6169;44.158;22.788;2023-03-26T12:04:02;100492.00;;;21.78;20.37
12213;BME280;6169;44.158;22.788;2023-03-26T12:09:15;100491.06;;;21.37;20.37
12213;BME280;6169;44.158;22.788;2023-03-26T12:14:20;100492.50;;;21.35;19.62
12213;BME280;6169;44.158;22.788;2023-03-26T12:19:24;100483.88;;;21.50;19.24
12213;BME280;6169;44.158;22.788;2023-03-26T12:24:30;100481.94;;;21.82;19.90
12213;BME280;6169;44.158;22.788;2023-03-26T12:29:33;100459.47;;;21.83;18.90
12213;BME280;6169;44.158;22.788;2023-03-26T12:34:37;100465.53;;;21.63;19.57
12213;BME280;6169;44.158;22.788;2023-03-26T12:39:41;100465.38;;;21.99;18.83
12213;BME280;6169;44.158;22.788;2023-03-26T12:44:45;100471.50;;;23.02;18.93
12213;BME280;6169;44.158;22.788;2023-03-26T12:49:53;100452.50;;;21.10;19.40
12213;BME280;6169;44.158;22.788;2023-03-26T12:55:01;100451.72;;;22.03;19.04
12213;BME280;6169;44.158;22.788;2023-03-26T13:00:25;100445.56;;;21.44;19.62
12213;BME280;6169;44.158;22.788;2023-03-26T13:05:44;100432.81;;;21.96;17.56
12213;BME280;6169;44.158;22.788;2023-03-26T13:10:56;100440.50;;;22.08;17.90
12213;BME280;6169;44.158;22.788;2023-03-26T13:16:06;100419.94;;;23.10;18.53
12213;BME280;6169;44.158;22.788;2023-03-26T13:21:18;100413.66;;;23.86;18.67
12213;BME280;6169;44.158;22.788;2023-03-26T13:26:38;100417.19;;;22.58;18.58
12213;BME280;6169;44.158;22.788;2023-03-26T13:31:49;100378.97;;;23.33;18.94
12213;BME280;6169;44.158;22.788;2023-03-26T13:37:03;100399.81;;;23.39;17.17
12213;BME280;6169;44.158;22.788;2023-03-26T13:42:20;100388.34;;;22.93;18.45
12213;BME280;6169;44.158;22.788;2023-03-26T13:47:27;100385.06;;;22.74;17.61
12213;BME280;6169;44.158;22.788;2023-03-26T13:52:38;100374.53;;;21.84;18.18
12213;BME280;6169;44.158;22.788;2023-03-26T13:57:48;100372.69;;;22.54;18.84
12213;BME280;6169;44.158;22.788;2023-03-26T14:02:56;100367.31;;;22.66;17.54
12213;BME280;6169;44.158;22.788;2023-03-26T14:08:09;100365.72;;;21.82;17.92
12213;BME280;6169;44.158;22.788;2023-03-26T14:13:16;100366.59;;;21.51;17.72
12213;BME280;6169;44.158;22.788;2023-03-26T14:18:27;100358.50;;;22.30;17.24
12213;BME280;6169;44.158;22.788;2023-03-26T14:29:29;100362.78;;;22.79;17.19
12213;BME280;6169;44.158;22.788;2023-03-26T14:34:52;100351.06;;;23.29;17.04
12213;BME280;6169;44.158;22.788;2023-03-26T14:40:29;100359.31;;;22.47;17.98
12213;BME280;6169;44.158;22.788;2023-03-26T14:45:48;100347.59;;;22.42;17.76
12213;BME280;6169;44.158;22.788;2023-03-26T14:51:03;100349.25;;;22.43;17.60
12213;BME280;6169;44.158;22.788;2023-03-26T14:56:36;100344.50;;;22.43;17.44
12213;BME280;6169;44.158;22.788;2023-03-26T15:02:05;100333.22;;;22.92;17.19
12213;BME280;6169;44.158;22.788;2023-03-26T15:07:32;100324.28;;;22.86;17.32
12213;BME280;6169;44.158;22.788;2023-03-26T15:13:04;100315.00;;;22.56;17.65
12213;BME280;6169;44.158;22.788;2023-03-26T15:29:38;100316.94;;;22.73;17.48
12213;BME280;6169;44.158;22.788;2023-03-26T15:35:22;100328.69;;;22.18;18.38
12213;BME280;6169;44.158;22.788;2023-03-26T15:40:59;100330.00;;;22.81;18.25
12213;BME280;6169;44.158;22.788;2023-03-26T15:46:24;100315.16;;;22.77;18.37
12213;BME280;6169;44.158;22.788;2023-03-26T15:51:44;100318.41;;;22.01;18.72
12213;BME280;6169;44.158;22.788;2023-03-26T15:57:07;100311.44;;;22.38;19.19
12213;BME280;6169;44.158;22.788;2023-03-26T16:02:24;100313.06;;;22.22;19.00
12213;BME280;6169;44.158;22.788;2023-03-26T16:07:40;100308.22;;;21.62;19.72
12213;BME280;6169;44.158;22.788;2023-03-26T16:12:54;100301.41;;;21.28;19.95
12213;BME280;6169;44.158;22.788;2023-03-26T16:18:24;100299.50;;;21.46;19.93
12213;BME280;6169;44.158;22.788;2023-03-26T16:23:31;100298.50;;;21.81;19.88
12213;BME280;6169;44.158;22.788;2023-03-26T16:28:37;100284.94;;;21.54;20.20
12213;BME280;6169;44.158;22.788;2023-03-26T16:34:19;100288.16;;;21.47;21.63
12213;BME280;6169;44.158;22.788;2023-03-26T16:39:26;100290.97;;;21.16;21.75
12213;BME280;6169;44.158;22.788;2023-03-26T16:44:42;100287.88;;;20.86;23.23
12213;BME280;6169;44.158;22.788;2023-03-26T16:49:53;100288.03;;;20.90;24.13
12213;BME280;6169;44.158;22.788;2023-03-26T16:55:14;100290.69;;;20.14;24.92
12213;BME280;6169;44.158;22.788;2023-03-26T17:00:46;100275.81;;;20.15;25.62
12213;BME280;6169;44.158;22.788;2023-03-26T17:06:01;100274.16;;;19.64;27.05
12213;BME280;6169;44.158;22.788;2023-03-26T17:11:14;100272.22;;;19.36;27.68
12213;BME280;6169;44.158;22.788;2023-03-26T17:16:23;100274.28;;;19.58;27.61
12213;BME280;6169;44.158;22.788;2023-03-26T17:21:35;100269.53;;;19.04;28.22
12213;BME280;6169;44.158;22.788;2023-03-26T17:26:50;100267.59;;;18.58;27.83
12213;BME280;6169;44.158;22.788;2023-03-26T17:31:59;100270.94;;;18.87;29.35
12213;BME280;6169;44.158;22.788;2023-03-26T17:37:09;100255.28;;;18.69;29.44
12213;BME280;6169;44.158;22.788;2023-03-26T17:42:24;100256.91;;;18.70;29.00
12213;BME280;6169;44.158;22.788;2023-03-26T17:47:37;100262.25;;;18.47;28.97
12213;BME280;6169;44.158;22.788;2023-03-26T17:52:50;100259.34;;;18.39;29.23
12213;BME280;6169;44.158;22.788;2023-03-26T17:57:56;100258.41;;;18.30;29.70
12213;BME280;6169;44.158;22.788;2023-03-26T18:03:02;100253.84;;;18.06;29.92
12213;BME280;6169;44.158;22.788;2023-03-26T18:08:38;100257.75;;;17.81;30.11
12213;BME280;6169;44.158;22.788;2023-03-26T18:13:56;100249.50;;;17.38;30.37
12213;BME280;6169;44.158;22.788;2023-03-26T18:19:10;100257.09;;;17.46;29.81
12213;BME280;6169;44.158;22.788;2023-03-26T18:24:22;100257.88;;;17.28;30.20
12213;BME280;6169;44.158;22.788;2023-03-26T18:29:28;100253.91;;;17.10;29.91
12213;BME280;6169;44.158;22.788;2023-03-26T18:34:32;100254.03;;;16.70;30.58
12213;BME280;6169;44.158;22.788;2023-03-26T18:39:37;100250.94;;;17.06;29.89
12213;BME280;6169;44.158;22.788;2023-03-26T18:44:40;100253.66;;;16.53;30.38
12213;BME280;6169;44.158;22.788;2023-03-26T18:49:43;100237.84;;;16.40;30.70
12213;BME280;6169;44.158;22.788;2023-03-26T18:54:50;100243.63;;;16.67;31.20
12213;BME280;6169;44.158;22.788;2023-03-26T18:59:56;100236.22;;;16.39;32.08
12213;BME280;6169;44.158;22.788;2023-03-26T19:05:13;100228.78;;;16.39;32.27
12213;BME280;6169;44.158;22.788;2023-03-26T19:10:18;100237.09;;;16.63;32.07
12213;BME280;6169;44.158;22.788;2023-03-26T19:15:22;100231.88;;;16.62;31.93
12213;BME280;6169;44.158;22.788;2023-03-26T19:20:28;100223.41;;;16.24;32.79
12213;BME280;6169;44.158;22.788;2023-03-26T19:25:35;100211.47;;;16.44;32.30
12213;BME280;6169;44.158;22.788;2023-03-26T19:30:39;100215.50;;;16.17;32.54
12213;BME280;6169;44.158;22.788;2023-03-26T19:35:45;100195.19;;;15.84;32.70
12213;BME280;6169;44.158;22.788;2023-03-26T19:40:50;100195.13;;;15.94;33.08
12213;BME280;6169;44.158;22.788;2023-03-26T19:45:53;100190.66;;;15.64;32.81
12213;BME280;6169;44.158;22.788;2023-03-26T19:51:00;100194.00;;;15.56;33.36
12213;BME280;6169;44.158;22.788;2023-03-26T19:56:12;100183.97;;;15.31;33.96
12213;BME280;6169;44.158;22.788;2023-03-26T20:01:16;100150.81;;;15.32;33.63
12213;BME280;6169;44.158;22.788;2023-03-26T20:06:21;100164.19;;;15.44;33.92
12213;BME280;6169;44.158;22.788;2023-03-26T20:11:28;100162.50;;;15.58;33.90
12213;BME280;6169;44.158;22.788;2023-03-26T20:16:33;100151.75;;;15.67;34.19
12213;BME280;6169;44.158;22.788;2023-03-26T20:21:35;100162.06;;;15.31;34.44
12213;BME280;6169;44.158;22.788;2023-03-26T20:26:41;100166.06;;;15.54;33.98
12213;BME280;6169;44.158;22.788;2023-03-26T20:31:44;100146.94;;;15.83;33.58
12213;BME280;6169;44.158;22.788;2023-03-26T20:36:48;100127.13;;;15.62;34.44
12213;BME280;6169;44.158;22.788;2023-03-26T20:41:56;100117.34;;;15.85;35.02
12213;BME280;6169;44.158;22.788;2023-03-26T20:46:58;100113.63;;;16.05;33.97
12213;BME280;6169;44.158;22.788;2023-03-26T20:52:00;100092.78;;;15.30;35.42
12213;BME280;6169;44.158;22.788;2023-03-26T20:57:03;100073.16;;;15.13;37.11
12213;BME280;6169;44.158;22.788;2023-03-26T21:02:06;100055.47;;;14.95;39.46
12213;BME280;6169;44.158;22.788;2023-03-26T21:07:09;100048.88;;;15.01;38.35
12213;BME280;6169;44.158;22.788;2023-03-26T21:12:22;100049.78;;;14.86;34.77
12213;BME280;6169;44.158;22.788;2023-03-26T21:17:28;100048.47;;;14.63;33.79
12213;BME280;6169;44.158;22.788;2023-03-26T21:22:35;100052.34;;;15.17;33.59
12213;BME280;6169;44.158;22.788;2023-03-26T21:27:53;100044.78;;;15.38;34.07
12213;BME280;6169;44.158;22.788;2023-03-26T21:32:57;100040.28;;;15.52;34.26
12213;BME280;6169;44.158;22.788;2023-03-26T21:38:02;100015.03;;;15.26;33.06
12213;BME280;6169;44.158;22.788;2023-03-26T21:43:10;100008.97;;;15.29;33.33
12213;BME280;6169;44.158;22.788;2023-03-26T21:48:13;100007.91;;;15.30;33.25
12213;BME280;6169;44.158;22.788;2023-03-26T21:53:16;99913.41;;;14.54;33.52
12213;BME280;6169;44.158;22.788;2023-03-26T21:58:29;99994.34;;;15.10;34.48
12213;BME280;6169;44.158;22.788;2023-03-26T22:03:47;99985.03;;;15.11;34.11
12213;BME280;6169;44.158;22.788;2023-03-26T22:08:55;99985.72;;;15.27;34.05
12213;BME280;6169;44.158;22.788;2023-03-26T22:14:00;99985.41;;;15.68;33.96
12213;BME280;6169;44.158;22.788;2023-03-26T22:19:02;99972.84;;;15.67;33.75
12213;BME280;6169;44.158;22.788;2023-03-26T22:24:05;99973.22;;;15.84;32.73
12213;BME280;6169;44.158;22.788;2023-03-26T22:29:10;99967.94;;;15.24;34.17
12213;BME280;6169;44.158;22.788;2023-03-26T22:34:12;99963.34;;;15.20;34.65
12213;BME280;6169;44.158;22.788;2023-03-26T22:39:14;99938.16;;;14.83;35.62
12213;BME280;6169;44.158;22.788;2023-03-26T22:44:18;99948.09;;;14.59;35.29
12213;BME280;6169;44.158;22.788;2023-03-26T22:49:20;99947.69;;;14.91;35.03
12213;BME280;6169;44.158;22.788;2023-03-26T22:54:22;99948.50;;;14.91;34.96
12213;BME280;6169;44.158;22.788;2023-03-26T22:59:26;99954.44;;;14.54;36.05
12213;BME280;6169;44.158;22.788;2023-03-26T23:04:28;99943.28;;;14.40;36.10
12213;BME280;6169;44.158;22.788;2023-03-26T23:09:30;99899.97;;;14.63;35.16
12213;BME280;6169;44.158;22.788;2023-03-26T23:14:34;99913.69;;;14.53;36.08
12213;BME280;6169;44.158;22.788;2023-03-26T23:19:36;99902.34;;;14.80;35.59
12213;BME280;6169;44.158;22.788;2023-03-26T23:24:38;99879.16;;;14.67;35.65
12213;BME280;6169;44.158;22.788;2023-03-26T23:29:42;99900.81;;;14.53;36.71
12213;BME280;6169;44.158;22.788;2023-03-26T23:34:45;99858.63;;;14.20;37.22
12213;BME280;6169;44.158;22.788;2023-03-26T23:39:47;99866.44;;;14.86;36.82
12213;BME280;6169;44.158;22.788;2023-03-26T23:44:51;99857.63;;;14.95;37.04
12213;BME280;6169;44.158;22.788;2023-03-26T23:49:55;99866.44;;;14.86;37.35
12213;BME280;6169;44.158;22.788;2023-03-26T23:54:58;99856.50;;;14.96;37.08
